createdAt,value
2019-02-05T00:00:37.191Z,2.80
2019-02-05T00:01:37.175Z,3.20
2019-02-05T00:02:37.164Z,3.20
2019-02-05T00:03:37.159Z,2.80
2019-02-05T00:04:37.169Z,3.20
2019-02-05T00:05:37.127Z,3.70
2019-02-05T00:06:37.122Z,3.10
2019-02-05T00:07:37.115Z,3.00
2019-02-05T00:08:37.093Z,3.10
2019-02-05T00:09:37.083Z,3.20
2019-02-05T00:10:37.105Z,3.20
2019-02-05T00:11:37.063Z,3.10
2019-02-05T00:12:37.056Z,2.50
2019-02-05T00:13:37.087Z,3.20
2019-02-05T00:14:37.037Z,3.20
2019-02-05T00:15:37.048Z,2.90
2019-02-05T00:16:37.010Z,3.10
2019-02-05T00:17:37.000Z,2.90
2019-02-05T00:18:36.989Z,2.90
2019-02-05T00:19:36.982Z,2.80
2019-02-05T00:20:37.005Z,3.00
2019-02-05T00:21:36.966Z,3.30
2019-02-05T00:22:36.948Z,3.20
2019-02-05T00:23:36.936Z,3.00
2019-02-05T00:24:36.931Z,3.10
2019-02-05T00:25:36.922Z,2.70
2019-02-05T00:26:36.943Z,3.30
2019-02-05T00:27:36.900Z,2.80
2019-02-05T00:28:36.887Z,3.40
2019-02-05T00:29:36.873Z,3.30
2019-02-05T00:30:36.863Z,3.30
2019-02-05T00:31:36.885Z,2.80
2019-02-05T00:32:36.847Z,3.10
2019-02-05T00:33:36.841Z,3.20
2019-02-05T00:34:36.831Z,2.20
2019-02-05T00:35:36.816Z,2.90
2019-02-05T00:36:36.798Z,3.40
2019-02-05T00:37:36.824Z,3.00
2019-02-05T00:38:36.783Z,3.30
2019-02-05T00:39:36.777Z,2.40
2019-02-05T00:40:36.761Z,2.70
2019-02-05T00:41:36.748Z,3.00
2019-02-05T00:42:36.735Z,3.30
2019-02-05T00:43:36.748Z,3.20
2019-02-05T00:44:36.721Z,3.30
2019-02-05T00:45:36.712Z,3.10
2019-02-05T00:46:36.703Z,2.90
2019-02-05T00:47:36.737Z,3.10
2019-02-05T00:48:36.699Z,3.20
2019-02-05T00:49:36.665Z,3.50
2019-02-05T00:50:36.653Z,2.70
2019-02-05T00:51:36.642Z,3.40
2019-02-05T00:52:36.641Z,3.20
2019-02-05T00:53:36.670Z,2.90
2019-02-05T00:54:36.611Z,2.90
2019-02-05T00:55:36.601Z,3.50
2019-02-05T00:56:36.594Z,3.20
2019-02-05T00:57:36.588Z,2.80
2019-02-05T00:58:36.575Z,3.20
2019-02-05T00:59:36.587Z,3.00
2019-02-05T01:00:36.546Z,2.50
2019-02-05T01:01:36.538Z,3.00
2019-02-05T01:02:36.524Z,3.20
2019-02-05T01:03:36.517Z,3.10
2019-02-05T01:04:36.533Z,3.00
2019-02-05T01:05:36.501Z,3.60
2019-02-05T01:06:36.494Z,2.80
2019-02-05T01:07:36.479Z,3.20
2019-02-05T01:08:36.467Z,2.90
2019-02-05T01:09:36.483Z,3.50
2019-02-05T01:10:36.446Z,3.40
2019-02-05T01:11:36.439Z,3.10
2019-02-05T01:12:36.420Z,3.50
2019-02-05T01:13:36.410Z,3.00
2019-02-05T01:14:36.400Z,3.20
2019-02-05T01:15:36.427Z,3.30
2019-02-05T01:16:36.384Z,2.70
2019-02-05T01:17:36.372Z,3.30
2019-02-05T01:18:36.369Z,3.40
2019-02-05T01:19:36.357Z,3.60
2019-02-05T01:20:36.337Z,3.30
2019-02-05T01:21:36.357Z,3.20
2019-02-05T01:22:36.315Z,3.10
2019-02-05T01:23:36.308Z,3.00
2019-02-05T01:24:36.301Z,4.00
2019-02-05T01:25:36.290Z,4.30
2019-02-05T01:26:36.296Z,4.30
2019-02-05T01:27:36.267Z,4.30
2019-02-05T01:28:36.266Z,8.50
2019-02-05T01:29:36.251Z,5.40
2019-02-05T01:30:36.262Z,7.60
2019-02-05T01:31:36.227Z,16.30
2019-02-05T01:32:36.243Z,11.70
2019-02-05T01:33:36.202Z,8.80
2019-02-05T01:34:36.190Z,6.90
2019-02-05T01:35:36.182Z,12.50
2019-02-05T01:36:36.175Z,6.80
2019-02-05T01:37:38.437Z,5.50
2019-02-05T01:38:36.218Z,4.60
2019-02-05T01:39:36.144Z,3.90
2019-02-05T01:40:36.132Z,3.70
2019-02-05T01:41:36.152Z,3.70
2019-02-05T01:42:36.113Z,3.70
2019-02-05T01:43:36.122Z,3.20
2019-02-05T01:44:36.085Z,3.50
2019-02-05T01:45:36.077Z,3.40
2019-02-05T01:46:36.073Z,3.20
2019-02-05T01:47:36.052Z,3.90
2019-02-05T01:48:36.076Z,3.50
2019-02-05T01:49:36.043Z,3.20
2019-02-05T01:50:36.029Z,3.20
2019-02-05T01:51:36.017Z,2.70
2019-02-05T01:52:36.042Z,3.10
2019-02-05T01:53:35.992Z,3.30
2019-02-05T01:54:35.999Z,3.20
2019-02-05T01:55:35.978Z,3.10
2019-02-05T01:56:40.809Z,3.10
2019-02-05T01:57:36.954Z,2.80
2019-02-05T01:58:35.985Z,2.30
2019-02-05T01:59:35.959Z,3.50
2019-02-05T02:00:35.925Z,2.70
2019-02-05T02:01:36.023Z,3.20
2019-02-05T02:02:35.907Z,3.40
2019-02-05T02:03:35.895Z,2.90
2019-02-05T02:04:35.898Z,2.40
2019-02-05T02:05:35.967Z,2.90
2019-02-05T02:06:35.856Z,3.10
2019-02-05T02:07:35.850Z,3.10
2019-02-05T02:08:35.862Z,3.10
2019-02-05T02:09:35.880Z,2.70
2019-02-05T02:10:35.819Z,3.00
2019-02-05T02:11:35.808Z,3.20
2019-02-05T02:12:35.790Z,2.90
2019-02-05T02:13:35.789Z,2.90
2019-02-05T02:14:35.809Z,2.60
2019-02-05T02:15:35.765Z,2.90
2019-02-05T02:16:35.815Z,3.20
2019-02-05T02:17:35.791Z,2.60
2019-02-05T02:18:35.735Z,2.70
2019-02-05T02:19:35.751Z,2.90
2019-02-05T02:20:35.717Z,2.90
2019-02-05T02:21:35.708Z,3.00
2019-02-05T02:22:35.692Z,2.80
2019-02-05T02:23:35.685Z,3.30
2019-02-05T02:24:35.686Z,3.10
2019-02-05T02:25:35.673Z,2.90
2019-02-05T02:26:35.647Z,2.90
2019-02-05T02:27:35.634Z,3.30
2019-02-05T02:28:35.629Z,2.50
2019-02-05T02:29:35.648Z,2.60
2019-02-05T02:30:35.607Z,2.70
2019-02-05T02:31:35.657Z,3.00
2019-02-05T02:32:35.600Z,2.80
2019-02-05T02:33:35.577Z,2.80
2019-02-05T02:34:35.565Z,2.80
2019-02-05T02:35:35.587Z,2.40
2019-02-05T02:36:35.545Z,2.90
2019-02-05T02:37:35.532Z,3.00
2019-02-05T02:38:35.521Z,2.70
2019-02-05T02:39:35.850Z,2.50
2019-02-05T02:40:35.534Z,3.00
2019-02-05T02:41:35.508Z,2.90
2019-02-05T02:42:35.487Z,2.40
2019-02-05T02:43:35.472Z,2.60
2019-02-05T02:44:35.457Z,2.70
2019-02-05T02:45:35.480Z,2.40
2019-02-05T02:46:35.444Z,2.80
2019-02-05T02:47:35.432Z,2.70
2019-02-05T02:48:35.414Z,3.00
2019-02-05T02:49:35.406Z,2.90
2019-02-05T02:50:35.392Z,2.60
2019-02-05T02:51:35.402Z,2.30
2019-02-05T02:52:35.414Z,3.10
2019-02-05T02:53:35.407Z,2.90
2019-02-05T02:54:35.423Z,2.90
2019-02-05T02:55:35.422Z,3.00
2019-02-05T02:56:35.439Z,2.70
2019-02-05T02:57:35.343Z,2.50
2019-02-05T02:58:35.355Z,2.70
2019-02-05T02:59:35.298Z,3.10
2019-02-05T03:00:35.346Z,2.70
2019-02-05T03:01:35.317Z,2.70
2019-02-05T03:02:35.341Z,2.70
2019-02-05T03:03:35.287Z,2.60
2019-02-05T03:04:35.330Z,2.60
2019-02-05T03:05:35.278Z,2.80
2019-02-05T03:06:35.233Z,2.60
2019-02-05T03:07:35.213Z,3.00
2019-02-05T03:08:35.208Z,2.80
2019-02-05T03:09:35.197Z,2.70
2019-02-05T03:10:35.915Z,2.50
2019-02-05T03:11:35.218Z,2.70
2019-02-05T03:12:35.200Z,2.90
2019-02-05T03:13:35.150Z,2.10
2019-02-05T03:14:35.157Z,2.90
2019-02-05T03:15:35.168Z,2.50
2019-02-05T03:16:35.125Z,2.20
2019-02-05T03:17:35.163Z,2.80
2019-02-05T03:18:35.132Z,2.60
2019-02-05T03:19:35.382Z,3.10
2019-02-05T03:20:35.081Z,2.50
2019-02-05T03:21:35.104Z,3.00
2019-02-05T03:22:35.060Z,2.80
2019-02-05T03:23:35.059Z,2.40
2019-02-05T03:24:35.037Z,2.60
2019-02-05T03:25:35.052Z,2.80
2019-02-05T03:26:35.018Z,2.40
2019-02-05T03:27:35.027Z,2.70
2019-02-05T03:28:34.998Z,2.10
2019-02-05T03:29:34.989Z,2.70
2019-02-05T03:30:35.010Z,2.60
2019-02-05T03:31:34.971Z,2.70
2019-02-05T03:32:34.951Z,2.70
2019-02-05T03:33:34.948Z,2.60
2019-02-05T03:34:34.934Z,2.50
2019-02-05T03:35:34.928Z,3.00
2019-02-05T03:36:34.939Z,3.20
2019-02-05T03:37:34.901Z,2.90
2019-02-05T03:38:34.893Z,2.40
2019-02-05T03:39:34.876Z,2.50
2019-02-05T03:40:34.873Z,2.30
2019-02-05T03:41:34.896Z,2.60
2019-02-05T03:42:34.859Z,2.70
2019-02-05T03:43:34.845Z,2.60
2019-02-05T03:44:34.827Z,2.70
2019-02-05T03:45:34.824Z,2.40
2019-02-05T03:46:34.811Z,2.80
2019-02-05T03:47:34.824Z,2.60
2019-02-05T03:48:34.789Z,2.70
2019-02-05T03:49:34.779Z,2.70
2019-02-05T03:50:34.763Z,1.80
2019-02-05T03:51:34.753Z,2.70
2019-02-05T03:52:34.751Z,3.20
2019-02-05T03:53:34.760Z,2.70
2019-02-05T03:54:34.726Z,2.50
2019-02-05T03:55:34.715Z,2.60
2019-02-05T03:56:34.701Z,2.50
2019-02-05T03:57:34.688Z,2.40
2019-02-05T03:58:34.715Z,2.50
2019-02-05T03:59:34.666Z,3.10
2019-02-05T04:00:34.666Z,2.30
2019-02-05T04:01:34.655Z,3.10
2019-02-05T04:02:34.642Z,2.30
2019-02-05T04:03:34.634Z,2.60
2019-02-05T04:04:34.636Z,2.80
2019-02-05T04:05:34.635Z,2.60
2019-02-05T04:06:34.615Z,2.40
2019-02-05T04:07:34.590Z,2.30
2019-02-05T04:08:34.582Z,3.00
2019-02-05T04:09:34.612Z,2.60
2019-02-05T04:10:34.551Z,2.20
2019-02-05T04:11:34.546Z,2.10
2019-02-05T04:12:34.539Z,2.70
2019-02-05T04:13:34.526Z,2.20
2019-02-05T04:14:34.517Z,2.70
2019-02-05T04:15:34.528Z,2.60
2019-02-05T04:16:34.487Z,2.80
2019-02-05T04:17:34.481Z,2.20
2019-02-05T04:18:34.469Z,2.70
2019-02-05T04:19:34.457Z,2.00
2019-02-05T04:20:34.495Z,2.40
2019-02-05T04:21:34.441Z,2.40
2019-02-05T04:22:34.421Z,2.50
2019-02-05T04:23:34.415Z,2.60
2019-02-05T04:24:34.410Z,2.10
2019-02-05T04:25:34.410Z,2.50
2019-02-05T04:26:34.421Z,3.00
2019-02-05T04:27:43.817Z,2.50
2019-02-05T04:28:35.363Z,2.70
2019-02-05T04:29:34.353Z,2.20
2019-02-05T04:30:34.339Z,2.80
2019-02-05T04:31:34.363Z,2.50
2019-02-05T04:32:34.328Z,2.70
2019-02-05T04:33:34.317Z,2.70
2019-02-05T04:34:34.310Z,3.30
2019-02-05T04:35:34.297Z,2.60
2019-02-05T04:36:34.315Z,2.60
2019-02-05T04:37:34.297Z,2.60
2019-02-05T04:38:34.266Z,2.70
2019-02-05T04:39:34.254Z,2.60
2019-02-05T04:40:34.237Z,3.00
2019-02-05T04:41:34.224Z,2.40
2019-02-05T04:42:34.770Z,3.10
2019-02-05T04:43:34.207Z,2.80
2019-02-05T04:44:34.199Z,1.90
2019-02-05T04:45:34.534Z,2.60
2019-02-05T04:46:34.180Z,2.80
2019-02-05T04:47:34.179Z,2.80
2019-02-05T04:48:34.195Z,2.40
2019-02-05T04:49:34.145Z,3.10
2019-02-05T04:50:34.139Z,3.30
2019-02-05T04:51:34.123Z,2.00
2019-02-05T04:52:34.126Z,2.80
2019-02-05T04:53:34.108Z,2.70
2019-02-05T04:54:34.120Z,3.30
2019-02-05T04:55:34.084Z,3.00
2019-02-05T04:56:34.074Z,2.80
2019-02-05T04:57:34.064Z,3.10
2019-02-05T04:58:34.055Z,2.50
2019-02-05T04:59:34.044Z,2.70
2019-02-05T05:00:34.048Z,2.50
2019-02-05T05:01:34.015Z,3.20
2019-02-05T05:02:34.005Z,2.80
2019-02-05T05:03:33.998Z,2.70
2019-02-05T05:04:34.021Z,2.80
2019-02-05T05:05:33.978Z,2.80
2019-02-05T05:06:34.083Z,2.90
2019-02-05T05:07:33.958Z,3.00
2019-02-05T05:08:33.945Z,3.00
2019-02-05T05:09:33.934Z,2.60
2019-02-05T05:10:33.961Z,3.30
2019-02-05T05:11:33.916Z,2.90
2019-02-05T05:12:33.901Z,2.80
2019-02-05T05:13:33.894Z,2.90
2019-02-05T05:14:33.876Z,2.70
2019-02-05T05:15:33.873Z,2.50
2019-02-05T05:16:33.925Z,3.50
2019-02-05T05:17:33.860Z,2.80
2019-02-05T05:18:33.843Z,2.70
2019-02-05T05:19:33.838Z,2.80
2019-02-05T05:20:33.813Z,3.00
2019-02-05T05:21:33.834Z,3.10
2019-02-05T05:22:33.839Z,3.80
2019-02-05T05:23:33.784Z,2.70
2019-02-05T05:24:33.779Z,2.80
2019-02-05T05:25:33.789Z,2.70
2019-02-05T05:26:33.787Z,2.90
2019-02-05T05:27:33.741Z,2.60
2019-02-05T05:28:33.742Z,3.00
2019-02-05T05:29:33.734Z,3.10
2019-02-05T05:30:33.716Z,2.70
2019-02-05T05:31:33.730Z,2.80
2019-02-05T05:32:33.688Z,2.60
2019-02-05T05:33:33.680Z,2.80
2019-02-05T05:34:33.668Z,3.20
2019-02-05T05:35:43.391Z,3.40
2019-02-05T05:36:34.683Z,3.00
2019-02-05T05:37:33.650Z,3.00
2019-02-05T05:38:33.632Z,3.00
2019-02-05T05:39:33.622Z,3.30
2019-02-05T05:40:33.609Z,3.00
2019-02-05T05:41:33.595Z,2.40
2019-02-05T05:42:33.618Z,3.00
2019-02-05T05:43:33.607Z,3.10
2019-02-05T05:44:33.568Z,2.70
2019-02-05T05:45:33.556Z,3.10
2019-02-05T05:46:33.542Z,2.80
2019-02-05T05:47:33.575Z,2.40
2019-02-05T05:48:33.527Z,2.60
2019-02-05T05:49:33.521Z,2.90
2019-02-05T05:50:33.513Z,3.00
2019-02-05T05:51:33.496Z,3.50
2019-02-05T05:52:33.480Z,2.90
2019-02-05T05:53:33.504Z,3.10
2019-02-05T05:54:33.461Z,2.80
2019-02-05T05:55:33.447Z,3.30
2019-02-05T05:56:33.444Z,2.70
2019-02-05T05:57:33.436Z,3.00
2019-02-05T05:58:33.447Z,3.20
2019-02-05T05:59:33.413Z,2.90
2019-02-05T06:00:33.420Z,3.10
2019-02-05T06:01:33.394Z,3.40
2019-02-05T06:02:33.383Z,3.20
2019-02-05T06:03:33.394Z,2.80
2019-02-05T06:04:33.374Z,2.90
2019-02-05T06:05:33.572Z,3.10
2019-02-05T06:06:33.770Z,3.20
2019-02-05T06:07:33.326Z,3.50
2019-02-05T06:08:33.320Z,3.00
2019-02-05T06:09:33.378Z,3.00
2019-02-05T06:10:33.319Z,3.20
2019-02-05T06:11:33.290Z,3.00
2019-02-05T06:12:33.275Z,2.60
2019-02-05T06:13:33.258Z,3.00
2019-02-05T06:14:33.255Z,3.00
2019-02-05T06:15:35.818Z,3.20
2019-02-05T06:16:33.228Z,2.90
2019-02-05T06:17:33.224Z,3.10
2019-02-05T06:18:33.211Z,3.40
2019-02-05T06:19:33.196Z,3.20
2019-02-05T06:20:33.195Z,3.40
2019-02-05T06:21:33.226Z,3.40
2019-02-05T06:22:33.174Z,3.40
2019-02-05T06:23:33.165Z,3.20
2019-02-05T06:24:33.159Z,3.40
2019-02-05T06:25:33.136Z,3.00
2019-02-05T06:26:33.121Z,3.00
2019-02-05T06:27:33.134Z,3.20
2019-02-05T06:28:34.686Z,3.10
2019-02-05T06:29:33.118Z,3.20
2019-02-05T06:30:33.080Z,3.50
2019-02-05T06:31:33.070Z,3.80
2019-02-05T06:32:33.085Z,3.40
2019-02-05T06:33:33.058Z,3.20
2019-02-05T06:34:33.050Z,3.30
2019-02-05T06:35:33.032Z,3.20
2019-02-05T06:36:33.018Z,3.10
2019-02-05T06:37:33.041Z,3.40
2019-02-05T06:38:32.996Z,2.80
2019-02-05T06:39:32.987Z,3.10
2019-02-05T06:40:33.007Z,2.90
2019-02-05T06:41:32.978Z,2.90
2019-02-05T06:42:32.959Z,3.30
2019-02-05T06:43:32.952Z,3.40
2019-02-05T06:44:32.970Z,3.10
2019-02-05T06:45:32.925Z,2.90
2019-02-05T06:46:32.948Z,2.90
2019-02-05T06:47:32.943Z,3.20
2019-02-05T06:48:32.889Z,2.90
2019-02-05T06:49:32.898Z,3.30
2019-02-05T06:50:32.907Z,3.90
2019-02-05T06:51:32.863Z,3.10
2019-02-05T06:52:32.856Z,3.10
2019-02-05T06:53:32.852Z,3.00
2019-02-05T06:54:32.832Z,3.40
2019-02-05T06:55:32.823Z,3.40
2019-02-05T06:56:32.839Z,3.00
2019-02-05T06:57:32.798Z,3.20
2019-02-05T06:58:32.792Z,3.20
2019-02-05T06:59:32.779Z,2.90
2019-02-05T07:00:32.772Z,3.50
2019-02-05T07:01:32.760Z,2.60
2019-02-05T07:02:33.202Z,3.30
2019-02-05T07:03:32.861Z,3.30
2019-02-05T07:04:32.739Z,3.20
2019-02-05T07:05:32.729Z,3.40
2019-02-05T07:06:32.722Z,2.80
2019-02-05T07:07:32.774Z,3.50
2019-02-05T07:08:32.695Z,3.00
2019-02-05T07:09:32.704Z,3.50
2019-02-05T07:10:32.678Z,2.90
2019-02-05T07:11:32.667Z,3.10
2019-02-05T07:12:32.670Z,2.60
2019-02-05T07:13:32.680Z,3.40
2019-02-05T07:14:32.634Z,3.20
2019-02-05T07:15:32.645Z,2.50
2019-02-05T07:16:32.607Z,3.80
2019-02-05T07:17:32.597Z,2.40
2019-02-05T07:18:32.639Z,3.30
2019-02-05T07:19:32.580Z,3.00
2019-02-05T07:20:32.566Z,3.50
2019-02-05T07:21:32.557Z,3.20
2019-02-05T07:22:32.545Z,3.80
2019-02-05T07:23:32.531Z,2.60
2019-02-05T07:24:32.893Z,3.20
2019-02-05T07:25:32.519Z,3.50
2019-02-05T07:26:32.510Z,3.30
2019-02-05T07:27:32.502Z,3.50
2019-02-05T07:28:32.493Z,2.70
2019-02-05T07:29:32.493Z,3.20
2019-02-05T07:30:32.467Z,3.30
2019-02-05T07:31:32.449Z,3.40
2019-02-05T07:32:32.447Z,3.20
2019-02-05T07:33:32.436Z,3.30
2019-02-05T07:34:32.445Z,3.00
2019-02-05T07:35:32.438Z,3.50
2019-02-05T07:36:32.404Z,3.10
2019-02-05T07:37:32.475Z,3.50
2019-02-05T07:38:32.406Z,3.30
2019-02-05T07:39:32.375Z,3.20
2019-02-05T07:40:32.382Z,3.30
2019-02-05T07:41:32.345Z,3.30
2019-02-05T07:42:32.333Z,3.70
2019-02-05T07:43:32.321Z,3.20
2019-02-05T07:44:32.336Z,4.10
2019-02-05T07:45:32.312Z,3.40
2019-02-05T07:46:32.327Z,3.80
2019-02-05T07:47:32.303Z,3.90
2019-02-05T07:48:32.272Z,4.00
2019-02-05T07:49:32.260Z,3.20
2019-02-05T07:50:32.260Z,3.60
2019-02-05T07:51:32.269Z,3.00
2019-02-05T07:52:32.229Z,3.00
2019-02-05T07:53:33.284Z,3.50
2019-02-05T07:54:32.212Z,3.30
2019-02-05T07:55:32.197Z,3.80
2019-02-05T07:56:32.235Z,3.70
2019-02-05T07:57:33.176Z,3.70
2019-02-05T07:58:32.175Z,3.40
2019-02-05T07:59:32.164Z,3.50
2019-02-05T08:00:32.148Z,4.20
2019-02-05T08:01:32.135Z,3.20
2019-02-05T08:02:32.157Z,4.00
2019-02-05T08:03:32.112Z,3.40
2019-02-05T08:04:32.111Z,4.00
2019-02-05T08:05:32.097Z,3.80
2019-02-05T08:06:32.081Z,3.80
2019-02-05T08:07:32.071Z,3.70
2019-02-05T08:08:32.093Z,4.00
2019-02-05T08:09:32.058Z,3.70
2019-02-05T08:10:32.054Z,3.80
2019-02-05T08:11:32.036Z,3.30
2019-02-05T08:12:32.047Z,3.80
2019-02-05T08:13:32.007Z,3.10
2019-02-05T08:14:31.996Z,4.00
2019-02-05T08:15:31.988Z,3.50
2019-02-05T08:16:33.935Z,3.60
2019-02-05T08:17:31.975Z,3.50
2019-02-05T08:18:31.987Z,3.80
2019-02-05T08:19:31.980Z,3.40
2019-02-05T08:20:32.667Z,3.70
2019-02-05T08:21:31.924Z,4.20
2019-02-05T08:22:32.337Z,3.60
2019-02-05T08:23:31.914Z,4.20
2019-02-05T08:24:31.952Z,3.60
2019-02-05T08:25:31.886Z,3.60
2019-02-05T08:26:31.874Z,3.90
2019-02-05T08:27:31.867Z,3.80
2019-02-05T08:28:40.671Z,3.90
2019-02-05T08:29:32.875Z,3.60
2019-02-05T08:30:31.829Z,4.50
2019-02-05T08:31:31.820Z,3.70
2019-02-05T08:32:31.814Z,3.90
2019-02-05T08:33:31.804Z,3.60
2019-02-05T08:34:31.794Z,3.90
2019-02-05T08:35:31.807Z,3.70
2019-02-05T08:36:31.764Z,4.60
2019-02-05T08:37:31.753Z,3.40
2019-02-05T08:38:31.758Z,3.90
2019-02-05T08:39:31.740Z,3.30
2019-02-05T08:40:31.755Z,3.70
2019-02-05T08:41:31.711Z,4.40
2019-02-05T08:42:31.705Z,3.70
2019-02-05T08:43:31.771Z,3.50
2019-02-05T08:44:31.687Z,4.10
2019-02-05T08:45:31.742Z,3.80
2019-02-05T08:46:31.690Z,4.10
2019-02-05T08:47:31.654Z,4.10
2019-02-05T08:48:31.637Z,4.10
2019-02-05T08:49:31.631Z,4.20
2019-02-05T08:50:31.617Z,3.90
2019-02-05T08:51:31.627Z,3.20
2019-02-05T08:52:31.610Z,4.00
2019-02-05T08:53:31.591Z,4.50
2019-02-05T08:54:31.576Z,4.20
2019-02-05T08:55:31.581Z,4.00
2019-02-05T08:56:31.593Z,4.10
2019-02-05T08:57:31.550Z,4.10
2019-02-05T08:58:31.559Z,3.60
2019-02-05T08:59:31.530Z,4.00
2019-02-05T09:00:31.514Z,3.80
2019-02-05T09:01:31.499Z,3.60
2019-02-05T09:02:31.518Z,4.00
2019-02-05T09:03:31.481Z,4.00
2019-02-05T09:04:31.475Z,3.90
2019-02-05T09:05:31.465Z,4.20
2019-02-05T09:06:31.453Z,4.20
2019-02-05T09:07:31.443Z,4.20
2019-02-05T09:08:31.460Z,4.20
2019-02-05T09:09:31.428Z,4.70
2019-02-05T09:10:31.417Z,3.90
2019-02-05T09:11:31.402Z,4.20
2019-02-05T09:12:31.384Z,4.40
2019-02-05T09:13:31.399Z,4.30
2019-02-05T09:14:31.365Z,4.30
2019-02-05T09:15:31.353Z,3.70
2019-02-05T09:16:31.347Z,4.00
2019-02-05T09:17:32.223Z,4.20
2019-02-05T09:18:31.348Z,3.40
2019-02-05T09:19:31.317Z,3.90
2019-02-05T09:20:31.305Z,4.40
2019-02-05T09:21:31.291Z,3.80
2019-02-05T09:22:31.420Z,4.40
2019-02-05T09:23:31.299Z,4.20
2019-02-05T09:24:31.262Z,4.50
2019-02-05T09:25:31.252Z,4.30
2019-02-05T09:26:31.236Z,4.40
2019-02-05T09:27:31.227Z,5.10
2019-02-05T09:28:31.221Z,4.70
2019-02-05T09:29:33.464Z,4.30
2019-02-05T09:30:31.202Z,4.80
2019-02-05T09:31:31.189Z,4.40
2019-02-05T09:32:34.995Z,5.10
2019-02-05T09:33:31.164Z,4.70
2019-02-05T09:34:31.182Z,4.40
2019-02-05T09:35:31.145Z,4.10
2019-02-05T09:36:31.142Z,5.00
2019-02-05T09:37:31.137Z,4.90
2019-02-05T09:38:31.119Z,4.60
2019-02-05T09:39:31.110Z,4.20
2019-02-05T09:40:31.109Z,4.40
2019-02-05T09:41:31.076Z,4.30
2019-02-05T09:42:31.074Z,4.40
2019-02-05T09:43:31.063Z,4.60
2019-02-05T09:44:31.570Z,4.60
2019-02-05T09:45:31.067Z,3.60
2019-02-05T09:46:31.024Z,4.20
2019-02-05T09:47:31.043Z,4.60
2019-02-05T09:48:31.015Z,3.90
2019-02-05T09:49:31.001Z,4.80
2019-02-05T09:50:42.601Z,3.70
2019-02-05T09:51:31.998Z,4.30
2019-02-05T09:52:30.964Z,4.60
2019-02-05T09:53:30.954Z,3.90
2019-02-05T09:54:30.970Z,4.40
2019-02-05T09:55:30.962Z,4.10
2019-02-05T09:56:30.933Z,4.40
2019-02-05T09:57:30.917Z,4.10
2019-02-05T09:58:30.898Z,4.30
2019-02-05T09:59:30.892Z,4.50
2019-02-05T10:00:30.919Z,4.60
2019-02-05T10:01:30.873Z,4.90
2019-02-05T10:02:30.880Z,5.00
2019-02-05T10:03:30.858Z,4.10
2019-02-05T10:04:30.835Z,4.00
2019-02-05T10:05:30.823Z,4.50
2019-02-05T10:06:30.839Z,4.00
2019-02-05T10:07:30.802Z,4.10
2019-02-05T10:08:30.800Z,4.40
2019-02-05T10:09:30.808Z,3.90
2019-02-05T10:10:30.830Z,5.10
2019-02-05T10:11:30.868Z,4.60
2019-02-05T10:12:30.749Z,4.80
2019-02-05T10:13:30.739Z,4.60
2019-02-05T10:14:30.734Z,5.10
2019-02-05T10:15:30.773Z,4.70
2019-02-05T10:16:30.712Z,4.20
2019-02-05T10:17:30.720Z,4.30
2019-02-05T10:18:30.686Z,3.80
2019-02-05T10:19:30.675Z,4.20
2019-02-05T10:20:30.669Z,5.00
2019-02-05T10:21:30.658Z,4.40
2019-02-05T10:22:30.690Z,4.30
2019-02-05T10:23:30.640Z,4.00
2019-02-05T10:24:30.621Z,4.70
2019-02-05T10:25:30.618Z,4.60
2019-02-05T10:26:30.601Z,4.70
2019-02-05T10:27:30.590Z,4.40
2019-02-05T10:28:30.603Z,4.60
2019-02-05T10:29:30.576Z,3.90
2019-02-05T10:30:30.557Z,4.70
2019-02-05T10:31:30.550Z,4.50
2019-02-05T10:32:30.563Z,4.30
2019-02-05T10:33:30.532Z,4.70
2019-02-05T10:34:34.272Z,5.00
2019-02-05T10:35:30.511Z,4.60
2019-02-05T10:36:30.493Z,4.60
2019-02-05T10:37:30.520Z,4.70
2019-02-05T10:38:30.473Z,4.90
2019-02-05T10:39:30.466Z,4.80
2019-02-05T10:40:30.457Z,4.50
2019-02-05T10:41:30.449Z,4.20
2019-02-05T10:42:30.471Z,4.60
2019-02-05T10:43:30.495Z,4.70
2019-02-05T10:44:30.442Z,4.90
2019-02-05T10:45:30.411Z,4.20
2019-02-05T10:46:30.395Z,3.60
2019-02-05T10:47:30.404Z,4.40
2019-02-05T10:48:30.379Z,4.30
2019-02-05T10:49:30.421Z,4.30
2019-02-05T10:50:30.345Z,4.00
2019-02-05T10:51:30.339Z,4.60
2019-02-05T10:52:30.331Z,4.60
2019-02-05T10:53:30.321Z,4.40
2019-02-05T10:54:30.309Z,4.70
2019-02-05T10:55:30.327Z,4.80
2019-02-05T10:56:30.287Z,5.10
2019-02-05T10:57:30.276Z,4.70
2019-02-05T10:58:30.259Z,4.70
2019-02-05T10:59:30.286Z,4.70
2019-02-05T11:00:30.246Z,4.10
2019-02-05T11:01:30.236Z,4.50
2019-02-05T11:02:30.220Z,4.40
2019-02-05T11:03:30.231Z,4.20
2019-02-05T11:04:30.205Z,4.10
2019-02-05T11:05:30.214Z,4.40
2019-02-05T11:06:30.183Z,4.80
2019-02-05T11:07:30.283Z,4.70
2019-02-05T11:08:30.153Z,4.60
2019-02-05T11:09:30.149Z,4.00
2019-02-05T11:10:30.172Z,4.50
2019-02-05T11:11:30.127Z,4.40
2019-02-05T11:12:30.121Z,4.20
2019-02-05T11:13:30.108Z,5.20
2019-02-05T11:14:30.097Z,4.50
2019-02-05T11:15:30.094Z,5.30
2019-02-05T11:16:30.094Z,4.40
2019-02-05T11:17:30.078Z,4.60
2019-02-05T11:18:30.057Z,4.40
2019-02-05T11:19:30.046Z,4.30
2019-02-05T11:20:30.029Z,4.60
2019-02-05T11:21:30.038Z,4.70
2019-02-05T11:22:30.008Z,4.90
2019-02-05T11:23:29.998Z,5.10
2019-02-05T11:24:29.993Z,4.50
2019-02-05T11:25:29.981Z,4.80
2019-02-05T11:26:29.992Z,5.00
2019-02-05T11:27:29.962Z,5.00
2019-02-05T11:28:29.944Z,5.20
2019-02-05T11:29:29.930Z,4.90
2019-02-05T11:30:29.926Z,4.40
2019-02-05T11:31:29.945Z,5.60
2019-02-05T11:32:29.910Z,4.40
2019-02-05T11:33:29.932Z,4.90
2019-02-05T11:34:29.880Z,5.30
2019-02-05T11:35:29.870Z,5.00
2019-02-05T11:36:29.868Z,5.20
2019-02-05T11:37:29.881Z,5.10
2019-02-05T11:38:29.844Z,4.10
2019-02-05T11:39:29.839Z,4.80
2019-02-05T11:40:29.820Z,4.70
2019-02-05T11:41:29.807Z,4.90
2019-02-05T11:42:29.820Z,5.30
2019-02-05T11:43:29.791Z,4.30
2019-02-05T11:44:29.779Z,4.50
2019-02-05T11:45:29.770Z,5.10
2019-02-05T11:46:29.769Z,5.50
2019-02-05T11:47:29.781Z,4.60
2019-02-05T11:48:29.734Z,5.50
2019-02-05T11:49:29.720Z,4.60
2019-02-05T11:50:29.720Z,4.70
2019-02-05T11:51:29.708Z,5.00
2019-02-05T11:52:29.721Z,4.70
2019-02-05T11:53:29.681Z,5.10
2019-02-05T11:54:29.670Z,4.80
2019-02-05T11:55:29.661Z,4.60
2019-02-05T11:56:29.655Z,4.80
2019-02-05T11:57:29.645Z,5.10
2019-02-05T11:58:29.665Z,4.70
2019-02-05T11:59:29.621Z,5.00
2019-02-05T12:00:32.644Z,5.00
2019-02-05T12:01:38.528Z,4.50
2019-02-05T12:02:30.584Z,5.10
2019-02-05T12:03:29.574Z,4.90
2019-02-05T12:04:29.591Z,5.00
2019-02-05T12:05:29.563Z,4.50
2019-02-05T12:06:29.545Z,5.00
2019-02-05T12:07:29.533Z,4.80
2019-02-05T12:08:29.537Z,4.80
2019-02-05T12:09:29.781Z,4.50
2019-02-05T12:10:29.535Z,4.20
2019-02-05T12:11:29.497Z,4.40
2019-02-05T12:12:29.511Z,5.00
2019-02-05T12:13:29.469Z,4.70
2019-02-05T12:14:29.458Z,4.80
2019-02-05T12:15:29.488Z,4.50
2019-02-05T12:16:29.447Z,5.10
2019-02-05T12:17:29.437Z,4.90
2019-02-05T12:18:29.424Z,4.60
2019-02-05T12:19:29.414Z,4.80
2019-02-05T12:20:29.397Z,4.60
2019-02-05T12:21:29.420Z,4.50
2019-02-05T12:22:29.384Z,4.80
2019-02-05T12:23:29.376Z,5.00
2019-02-05T12:24:29.383Z,4.90
2019-02-05T12:25:29.368Z,4.20
2019-02-05T12:26:29.335Z,4.80
2019-02-05T12:27:29.333Z,4.90
2019-02-05T12:28:29.319Z,4.80
2019-02-05T12:29:29.354Z,5.00
2019-02-05T12:30:29.331Z,4.70
2019-02-05T12:31:29.290Z,4.70
2019-02-05T12:32:29.277Z,5.20
2019-02-05T12:33:29.259Z,4.70
2019-02-05T12:34:29.251Z,4.90
2019-02-05T12:35:29.250Z,5.20
2019-02-05T12:36:29.267Z,5.10
2019-02-05T12:37:29.226Z,5.50
2019-02-05T12:38:29.210Z,4.60
2019-02-05T12:39:29.200Z,5.50
2019-02-05T12:40:29.214Z,4.50
2019-02-05T12:41:29.189Z,5.00
2019-02-05T12:42:29.196Z,5.40
2019-02-05T12:43:29.162Z,5.30
2019-02-05T12:44:29.145Z,5.30
2019-02-05T12:45:29.136Z,5.40
2019-02-05T12:46:29.152Z,4.90
2019-02-05T12:47:29.127Z,5.20
2019-02-05T12:48:29.112Z,5.80
2019-02-05T12:49:29.100Z,5.40
2019-02-05T12:50:29.086Z,5.00
2019-02-05T12:51:29.081Z,5.30
2019-02-05T12:52:29.100Z,4.90
2019-02-05T12:53:29.051Z,5.20
2019-02-05T12:54:29.044Z,5.50
2019-02-05T12:55:29.034Z,5.10
2019-02-05T12:56:29.016Z,4.90
2019-02-05T12:57:29.005Z,4.70
2019-02-05T12:58:29.015Z,4.80
2019-02-05T12:59:28.988Z,4.60
2019-02-05T13:00:28.980Z,4.80
2019-02-05T13:01:28.966Z,5.20
2019-02-05T13:02:28.956Z,4.90
2019-02-05T13:03:28.968Z,4.60
2019-02-05T13:04:28.927Z,4.80
2019-02-05T13:05:28.931Z,5.10
2019-02-05T13:06:28.913Z,5.00
2019-02-05T13:07:28.965Z,5.00
2019-02-05T13:08:29.250Z,5.10
2019-02-05T13:09:28.878Z,4.90
2019-02-05T13:10:28.861Z,4.90
2019-02-05T13:11:28.919Z,5.00
2019-02-05T13:12:28.890Z,5.20
2019-02-05T13:13:29.722Z,5.00
2019-02-05T13:14:28.829Z,4.70
2019-02-05T13:15:29.007Z,4.50
2019-02-05T13:16:28.799Z,5.10
2019-02-05T13:17:28.793Z,5.50
2019-02-05T13:18:28.839Z,5.10